createdAt,value
2018-01-25T00:00:38.489Z,1007.27
2018-01-25T00:01:38.516Z,1007.24
2018-01-25T00:02:38.553Z,1007.18
2018-01-25T00:03:38.630Z,1007.20
2018-01-25T00:04:38.613Z,1007.24
2018-01-25T00:05:38.963Z,1007.14
2018-01-25T00:06:38.675Z,1007.22
2018-01-25T00:07:38.709Z,1007.24
2018-01-25T00:08:38.741Z,1007.24
2018-01-25T00:09:38.772Z,1007.20
2018-01-25T00:11:38.842Z,1007.27
2018-01-25T00:12:39.169Z,1007.20
2018-01-25T00:13:38.898Z,1007.15
2018-01-25T00:14:38.933Z,1007.12
2018-01-25T00:15:39.074Z,1007.20
2018-01-25T00:16:39.000Z,1007.17
2018-01-25T00:17:39.069Z,1007.18
2018-01-25T00:18:39.060Z,1007.19
2018-01-25T00:19:39.397Z,1007.19
2018-01-25T00:20:39.147Z,1007.12
2018-01-25T00:21:39.156Z,1007.13
2018-01-25T00:22:39.188Z,1007.12
2018-01-25T00:23:39.226Z,1007.19
2018-01-25T00:24:39.254Z,1007.16
2018-01-25T00:25:39.288Z,1007.12
2018-01-25T00:26:39.621Z,1007.16
2018-01-25T00:27:39.350Z,1007.10
2018-01-25T00:28:39.381Z,1007.08
2018-01-25T00:29:39.413Z,1007.12
2018-01-25T00:30:39.454Z,1007.13
2018-01-25T00:31:39.484Z,1007.16
2018-01-25T00:32:39.511Z,1007.18
2018-01-25T00:33:39.841Z,1007.18
2018-01-25T00:34:39.580Z,1007.19
2018-01-25T00:35:39.615Z,1007.20
2018-01-25T00:36:39.641Z,1007.22
2018-01-25T00:37:39.668Z,1007.19
2018-01-25T00:38:39.704Z,1007.22
2018-01-25T00:39:39.738Z,1007.17
2018-01-25T00:40:40.066Z,1007.24
2018-01-25T00:41:39.795Z,1007.22
2018-01-25T00:42:39.829Z,1007.17
2018-01-25T00:43:39.861Z,1007.18
2018-01-25T00:44:39.901Z,1007.18
2018-01-25T00:45:39.924Z,1007.24
2018-01-25T00:46:39.958Z,1007.16
2018-01-25T00:47:40.298Z,1007.22
2018-01-25T00:48:40.032Z,1007.21
2018-01-25T00:49:40.053Z,1007.23
2018-01-25T00:50:40.099Z,1007.22
2018-01-25T00:51:40.120Z,1007.25
2018-01-25T00:52:40.155Z,1007.22
2018-01-25T00:53:40.184Z,1007.23
2018-01-25T00:54:40.515Z,1007.25
2018-01-25T00:55:40.250Z,1007.28
2018-01-25T00:56:40.283Z,1007.22
2018-01-25T00:57:40.310Z,1007.26
2018-01-25T00:58:40.344Z,1007.26
2018-01-25T00:59:40.387Z,1007.29
2018-01-25T01:00:40.756Z,1007.24
2018-01-25T01:01:40.438Z,1007.25
2018-01-25T01:02:40.472Z,1007.30
2018-01-25T01:03:40.505Z,1007.38
2018-01-25T01:05:40.575Z,1007.47
2018-01-25T01:07:40.930Z,1007.59
2018-01-25T01:08:40.668Z,1007.67
2018-01-25T01:09:40.693Z,1007.81
2018-01-25T01:11:40.817Z,1007.85
2018-01-25T01:12:40.796Z,1007.86
2018-01-25T01:13:41.187Z,1007.82
2018-01-25T01:14:40.857Z,1007.83
2018-01-25T01:15:40.900Z,1007.86
2018-01-25T01:16:40.926Z,1007.93
2018-01-25T01:17:40.952Z,1007.89
2018-01-25T01:18:40.979Z,1007.83
2018-01-25T01:19:41.316Z,1007.78
2018-01-25T01:20:41.056Z,1007.88
2018-01-25T01:21:41.076Z,1008.02
2018-01-25T01:22:41.109Z,1007.88
2018-01-25T01:23:41.142Z,1007.88
2018-01-25T01:24:41.173Z,1007.81
2018-01-25T01:25:41.210Z,1007.91
2018-01-25T01:26:41.544Z,1007.98
2018-01-25T01:27:41.274Z,1007.89
2018-01-25T01:28:41.303Z,1007.93
2018-01-25T01:29:41.333Z,1007.89
2018-01-25T01:30:41.368Z,1007.92
2018-01-25T01:31:41.400Z,1008.02
2018-01-25T01:32:41.433Z,1008.05
2018-01-25T01:33:41.760Z,1008.01
2018-01-25T01:34:41.494Z,1008.02
2018-01-25T01:35:41.535Z,1008.05
2018-01-25T01:36:41.565Z,1008.03
2018-01-25T01:37:41.588Z,1008.05
2018-01-25T01:38:41.624Z,1007.98
2018-01-25T01:39:41.659Z,1008.00
2018-01-25T01:40:41.982Z,1008.05
2018-01-25T01:41:41.718Z,1008.11
2018-01-25T01:42:41.750Z,1008.14
2018-01-25T01:43:41.780Z,1008.15
2018-01-25T01:44:41.822Z,1008.22
2018-01-25T01:45:41.845Z,1008.11
2018-01-25T01:46:43.439Z,1008.11
2018-01-25T01:47:42.257Z,1008.16
2018-01-25T01:48:41.935Z,1008.21
2018-01-25T01:49:42.024Z,1008.23
2018-01-25T01:50:42.014Z,1008.25
2018-01-25T01:51:42.036Z,1008.22
2018-01-25T01:52:42.065Z,1008.24
2018-01-25T01:53:42.099Z,1008.28
2018-01-25T01:54:42.430Z,1008.28
2018-01-25T01:55:42.209Z,1008.25
2018-01-25T01:56:42.198Z,1008.21
2018-01-25T01:57:42.224Z,1008.23
2018-01-25T01:58:42.256Z,1008.26
2018-01-25T01:59:42.291Z,1008.28
2018-01-25T02:00:42.321Z,1008.35
2018-01-25T02:01:42.702Z,1008.35
2018-01-25T02:02:42.383Z,1008.31
2018-01-25T02:03:42.412Z,1008.39
2018-01-25T02:04:42.453Z,1008.41
2018-01-25T02:05:42.479Z,1008.37
2018-01-25T02:06:42.509Z,1008.37
2018-01-25T02:07:42.540Z,1008.34
2018-01-25T02:08:42.922Z,1008.35
2018-01-25T02:09:42.608Z,1008.33
2018-01-25T02:10:42.641Z,1008.40
2018-01-25T02:11:42.670Z,1008.38
2018-01-25T02:12:42.701Z,1008.39
2018-01-25T02:13:42.733Z,1008.32
2018-01-25T02:14:43.115Z,1008.35
2018-01-25T02:15:42.795Z,1008.34
2018-01-25T02:16:42.827Z,1008.40
2018-01-25T02:17:42.862Z,1008.37
2018-01-25T02:18:42.894Z,1008.33
2018-01-25T02:19:42.922Z,1008.36
2018-01-25T02:20:43.305Z,1008.40
2018-01-25T02:22:43.017Z,1008.45
2018-01-25T02:23:43.045Z,1008.47
2018-01-25T02:24:43.083Z,1008.50
2018-01-25T02:25:43.117Z,1008.47
2018-01-25T02:26:43.496Z,1008.51
2018-01-25T02:27:43.178Z,1008.55
2018-01-25T02:28:43.210Z,1008.58
2018-01-25T02:29:43.245Z,1008.56
2018-01-25T02:30:43.274Z,1008.50
2018-01-25T02:31:43.303Z,1008.52
2018-01-25T02:32:43.633Z,1008.49
2018-01-25T02:33:43.377Z,1008.51
2018-01-25T02:34:43.408Z,1008.56
2018-01-25T02:35:43.433Z,1008.58
2018-01-25T02:36:43.457Z,1008.57
2018-01-25T02:37:43.493Z,1008.56
2018-01-25T02:38:43.525Z,1008.58
2018-01-25T02:39:43.906Z,1008.59
2018-01-25T02:40:43.594Z,1008.61
2018-01-25T02:41:43.621Z,1008.61
2018-01-25T02:42:43.666Z,1008.59
2018-01-25T02:43:43.694Z,1008.58
2018-01-25T02:44:43.716Z,1008.56
2018-01-25T02:45:43.755Z,1008.59
2018-01-25T02:46:44.128Z,1008.60
2018-01-25T02:47:43.809Z,1008.53
2018-01-25T02:48:43.840Z,1008.65
2018-01-25T02:49:43.873Z,1008.63
2018-01-25T02:50:43.909Z,1008.68
2018-01-25T02:51:43.931Z,1008.61
2018-01-25T02:52:43.963Z,1008.70
2018-01-25T02:53:44.297Z,1008.66
2018-01-25T02:54:44.032Z,1008.67
2018-01-25T02:55:44.061Z,1008.66
2018-01-25T02:56:44.091Z,1008.66
2018-01-25T02:57:44.133Z,1008.68
2018-01-25T02:58:44.161Z,1008.67
2018-01-25T02:59:44.195Z,1008.74
2018-01-25T03:00:44.573Z,1008.73
2018-01-25T03:01:44.249Z,1008.74
2018-01-25T03:02:44.282Z,1008.72
2018-01-25T03:03:44.311Z,1008.70
2018-01-25T03:04:44.346Z,1008.72
2018-01-25T03:05:44.375Z,1008.70
2018-01-25T03:06:44.405Z,1008.71
2018-01-25T03:07:44.741Z,1008.68
2018-01-25T03:08:44.495Z,1008.72
2018-01-25T03:09:44.500Z,1008.75
2018-01-25T03:10:44.542Z,1008.78
2018-01-25T03:11:44.562Z,1008.74
2018-01-25T03:12:44.597Z,1008.73
2018-01-25T03:13:44.626Z,1008.75
2018-01-25T03:14:45.023Z,1008.72
2018-01-25T03:15:44.691Z,1008.75
2018-01-25T03:16:44.744Z,1008.72
2018-01-25T03:17:44.755Z,1008.80
2018-01-25T03:18:44.790Z,1008.75
2018-01-25T03:19:44.869Z,1008.80
2018-01-25T03:20:44.846Z,1008.84
2018-01-25T03:21:45.232Z,1008.83
2018-01-25T03:22:44.911Z,1008.87
2018-01-25T03:23:44.957Z,1008.85
2018-01-25T03:24:44.982Z,1008.83
2018-01-25T03:25:45.010Z,1008.86
2018-01-25T03:26:45.040Z,1008.91
2018-01-25T03:27:45.073Z,1008.87
2018-01-25T03:28:45.450Z,1008.86
2018-01-25T03:29:45.134Z,1008.93
2018-01-25T03:30:45.163Z,1008.89
2018-01-25T03:31:45.194Z,1008.84
2018-01-25T03:32:45.227Z,1008.88
2018-01-25T03:34:45.291Z,1008.87
2018-01-25T03:35:45.690Z,1008.82
2018-01-25T03:36:45.354Z,1008.81
2018-01-25T03:37:45.493Z,1008.77
2018-01-25T03:38:45.424Z,1008.76
2018-01-25T03:39:45.447Z,1008.85
2018-01-25T03:40:45.478Z,1008.84
2018-01-25T03:41:45.509Z,1008.88
2018-01-25T03:42:45.890Z,1008.85
2018-01-25T03:43:45.580Z,1008.82
2018-01-25T03:44:45.602Z,1008.80
2018-01-25T03:45:45.662Z,1008.73
2018-01-25T03:46:45.666Z,1008.72
2018-01-25T03:47:45.700Z,1008.70
2018-01-25T03:48:45.727Z,1008.72
2018-01-25T03:49:46.064Z,1008.66
2018-01-25T03:50:45.796Z,1008.67
2018-01-25T03:51:45.827Z,1008.67
2018-01-25T03:52:45.853Z,1008.72
2018-01-25T03:53:45.883Z,1008.81
2018-01-25T03:54:45.919Z,1008.84
2018-01-25T03:55:45.950Z,1008.83
2018-01-25T03:56:45.982Z,1008.87
2018-01-25T03:57:46.011Z,1008.87
2018-01-25T03:58:46.046Z,1008.82
2018-01-25T03:59:46.072Z,1008.82
2018-01-25T04:00:46.110Z,1008.82
2018-01-25T04:01:46.135Z,1008.84
2018-01-25T04:02:46.469Z,1008.88
2018-01-25T04:03:46.201Z,1008.93
2018-01-25T04:04:46.229Z,1009.02
2018-01-25T04:05:46.272Z,1009.07
2018-01-25T04:06:46.298Z,1009.09
2018-01-25T04:08:46.712Z,1009.06
2018-01-25T04:09:46.472Z,1009.06
2018-01-25T04:10:46.417Z,1009.07
2018-01-25T04:11:46.456Z,1009.06
2018-01-25T04:12:46.478Z,1009.07
2018-01-25T04:13:46.511Z,1009.09
2018-01-25T04:14:46.845Z,1009.16
2018-01-25T04:15:46.577Z,1009.23
2018-01-25T04:16:46.616Z,1009.17
2018-01-25T04:17:46.643Z,1009.21
2018-01-25T04:18:46.671Z,1009.20
2018-01-25T04:19:46.703Z,1009.17
2018-01-25T04:20:46.739Z,1009.17
2018-01-25T04:21:47.069Z,1009.17
2018-01-25T04:22:47.085Z,1009.23
2018-01-25T04:23:46.833Z,1009.23
2018-01-25T04:24:47.020Z,1009.26
2018-01-25T04:25:46.894Z,1009.27
2018-01-25T04:26:46.924Z,1009.29
2018-01-25T04:27:46.959Z,1009.26
2018-01-25T04:28:47.287Z,1009.27
2018-01-25T04:29:47.022Z,1009.31
2018-01-25T04:30:47.052Z,1009.33
2018-01-25T04:32:47.219Z,1009.33
2018-01-25T04:35:47.220Z,1009.34
2018-01-25T04:36:47.238Z,1009.30
2018-01-25T04:37:47.278Z,1009.30
2018-01-25T04:39:47.327Z,1009.29
2018-01-25T04:40:47.367Z,1009.23
2018-01-25T04:41:47.394Z,1009.23
2018-01-25T04:42:47.793Z,1009.23
2018-01-25T04:43:47.456Z,1009.23
2018-01-25T04:44:47.486Z,1009.26
2018-01-25T04:45:47.533Z,1009.25
2018-01-25T04:46:47.623Z,1009.20
2018-01-25T04:48:47.613Z,1009.12
2018-01-25T04:49:47.950Z,1009.10
2018-01-25T04:50:47.695Z,1009.06
2018-01-25T04:51:47.915Z,1009.08
2018-01-25T04:52:47.749Z,1009.05
2018-01-25T04:53:47.775Z,1009.04
2018-01-25T04:54:47.831Z,1009.05
2018-01-25T04:55:47.830Z,1009.05
2018-01-25T04:56:48.180Z,1009.02
2018-01-25T04:57:47.895Z,1009.02
2018-01-25T04:58:47.934Z,1009.01
2018-01-25T04:59:47.962Z,1009.02
2018-01-25T05:00:47.990Z,1008.99
2018-01-25T05:01:48.071Z,1008.97
2018-01-25T05:02:48.064Z,1008.92
2018-01-25T05:03:48.436Z,1008.93
2018-01-25T05:05:48.152Z,1008.96
2018-01-25T05:06:48.217Z,1008.99
2018-01-25T05:07:48.226Z,1008.95
2018-01-25T05:08:48.238Z,1008.92
2018-01-25T05:09:48.272Z,1008.92
2018-01-25T05:10:48.624Z,1008.87
2018-01-25T05:11:48.336Z,1008.92
2018-01-25T05:12:48.471Z,1008.94
2018-01-25T05:13:48.400Z,1008.95
2018-01-25T05:14:48.434Z,1008.98
2018-01-25T05:15:48.460Z,1008.93
2018-01-25T05:16:48.495Z,1008.95
2018-01-25T05:17:48.877Z,1008.99
2018-01-25T05:18:48.561Z,1009.01
2018-01-25T05:19:48.588Z,1009.05
2018-01-25T05:20:48.621Z,1009.09
2018-01-25T05:21:48.654Z,1009.14
2018-01-25T05:22:48.683Z,1009.14
2018-01-25T05:23:48.711Z,1009.12
2018-01-25T05:24:49.095Z,1009.06
2018-01-25T05:25:48.777Z,1009.02
2018-01-25T05:26:48.809Z,1009.00
2018-01-25T05:27:48.840Z,1009.00
2018-01-25T05:28:48.875Z,1008.94
2018-01-25T05:29:48.901Z,1008.89
2018-01-25T05:30:48.933Z,1008.80
2018-01-25T05:31:49.319Z,1008.79
2018-01-25T05:32:49.044Z,1008.79
2018-01-25T05:33:49.030Z,1008.78
2018-01-25T05:34:49.058Z,1008.76
2018-01-25T05:35:49.092Z,1008.76
2018-01-25T05:36:49.170Z,1008.78
2018-01-25T05:37:49.151Z,1008.77
2018-01-25T05:38:49.487Z,1008.72
2018-01-25T05:39:49.219Z,1008.72
2018-01-25T05:40:49.250Z,1008.83
2018-01-25T05:41:49.284Z,1008.87
2018-01-25T05:42:49.315Z,1008.84
2018-01-25T05:43:49.409Z,1008.84
2018-01-25T05:44:49.378Z,1008.80
2018-01-25T05:45:49.717Z,1008.85
2018-01-25T05:46:49.434Z,1008.85
2018-01-25T05:47:49.470Z,1008.77
2018-01-25T05:48:49.503Z,1008.74
2018-01-25T05:49:49.531Z,1008.67
2018-01-25T05:50:49.568Z,1008.62
2018-01-25T05:51:49.893Z,1008.61
2018-01-25T05:52:49.641Z,1008.66
2018-01-25T05:53:49.659Z,1008.70
2018-01-25T05:54:49.706Z,1008.71
2018-01-25T05:55:49.716Z,1008.72
2018-01-25T05:56:49.756Z,1008.76
2018-01-25T05:58:49.818Z,1008.85
2018-01-25T05:59:49.844Z,1008.92
2018-01-25T06:00:49.891Z,1008.97
2018-01-25T06:01:49.905Z,1008.97
2018-01-25T06:02:49.944Z,1009.03
2018-01-25T06:03:50.326Z,1009.03
2018-01-25T06:04:50.016Z,1009.07
2018-01-25T06:05:50.032Z,1009.08
2018-01-25T06:06:50.068Z,1009.05
2018-01-25T06:07:50.098Z,1009.08
2018-01-25T06:08:50.137Z,1009.12
2018-01-25T06:09:50.160Z,1009.14
2018-01-25T06:10:50.567Z,1009.15
2018-01-25T06:11:50.221Z,1009.05
2018-01-25T06:12:50.277Z,1009.00
2018-01-25T06:13:50.284Z,1008.93
2018-01-25T06:14:50.324Z,1008.89
2018-01-25T06:15:50.351Z,1008.94
2018-01-25T06:16:50.392Z,1009.07
2018-01-25T06:17:50.762Z,1009.12
2018-01-25T06:18:50.450Z,1009.23
2018-01-25T06:19:50.477Z,1009.21
2018-01-25T06:20:50.524Z,1009.17
2018-01-25T06:21:50.539Z,1009.15
2018-01-25T06:22:50.595Z,1009.12
2018-01-25T06:23:50.613Z,1009.11
2018-01-25T06:24:50.995Z,1009.06
2018-01-25T06:25:50.665Z,1009.03
2018-01-25T06:26:50.697Z,1009.07
2018-01-25T06:27:50.729Z,1009.17
2018-01-25T06:28:50.757Z,1009.14
2018-01-25T06:29:50.819Z,1009.16
2018-01-25T06:30:52.055Z,1009.11
2018-01-25T06:31:51.206Z,1009.07
2018-01-25T06:32:50.886Z,1009.13
2018-01-25T06:33:50.916Z,1009.20
2018-01-25T06:34:50.954Z,1009.24
2018-01-25T06:35:50.981Z,1009.23
2018-01-25T06:36:51.014Z,1009.20
2018-01-25T06:37:51.045Z,1009.16
2018-01-25T06:38:51.425Z,1009.16
2018-01-25T06:39:51.102Z,1009.16
2018-01-25T06:41:51.187Z,1009.08
2018-01-25T06:42:51.272Z,1009.06
2018-01-25T06:43:51.229Z,1009.05
2018-01-25T06:44:51.272Z,1009.07
2018-01-25T06:45:51.644Z,1009.10
2018-01-25T06:46:52.760Z,1009.11
2018-01-25T06:47:51.358Z,1009.13
2018-01-25T06:48:51.388Z,1009.11
2018-01-25T06:49:51.426Z,1009.05
2018-01-25T06:50:51.458Z,1009.04
2018-01-25T06:51:51.481Z,1009.05
2018-01-25T06:52:51.813Z,1009.07
2018-01-25T06:54:51.576Z,1009.14
2018-01-25T06:55:51.665Z,1009.14
2018-01-25T06:56:51.644Z,1009.17
2018-01-25T06:57:51.687Z,1009.21
2018-01-25T06:58:51.768Z,1009.21
2018-01-25T06:59:52.087Z,1009.26
2018-01-25T07:00:51.770Z,1009.27
2018-01-25T07:01:51.809Z,1009.24
2018-01-25T07:02:51.839Z,1009.21
2018-01-25T07:03:51.887Z,1009.18
2018-01-25T07:04:51.898Z,1009.19
2018-01-25T07:05:52.743Z,1009.14
2018-01-25T07:06:52.258Z,1009.12
2018-01-25T07:07:51.995Z,1009.12
2018-01-25T07:08:52.021Z,1009.13
2018-01-25T07:09:52.054Z,1009.13
2018-01-25T07:10:52.098Z,1009.14
2018-01-25T07:11:52.116Z,1009.18
2018-01-25T07:12:52.150Z,1009.15
2018-01-25T07:13:52.493Z,1009.14
2018-01-25T07:14:52.210Z,1009.12
2018-01-25T07:15:52.268Z,1009.15
2018-01-25T07:16:52.358Z,1009.17
2018-01-25T07:17:52.361Z,1009.22
2018-01-25T07:18:52.338Z,1009.18
2018-01-25T07:19:52.367Z,1009.18
2018-01-25T07:20:52.748Z,1009.19
2018-01-25T07:21:52.433Z,1009.14
2018-01-25T07:22:52.527Z,1009.14
2018-01-25T07:23:52.544Z,1009.16
2018-01-25T07:24:52.600Z,1009.19
2018-01-25T07:25:52.573Z,1009.22
2018-01-25T07:26:52.592Z,1009.25
2018-01-25T07:27:53.025Z,1009.28
2018-01-25T07:29:52.689Z,1009.30
2018-01-25T07:30:52.715Z,1009.29
2018-01-25T07:31:52.788Z,1009.27
2018-01-25T07:32:52.777Z,1009.30
2018-01-25T07:34:53.202Z,1009.31
2018-01-25T07:35:52.880Z,1009.33
2018-01-25T07:37:52.948Z,1009.27
2018-01-25T07:38:52.966Z,1009.24
2018-01-25T07:39:53.000Z,1009.27
2018-01-25T07:40:53.383Z,1009.23
2018-01-25T07:41:53.077Z,1009.26
2018-01-25T07:42:53.095Z,1009.28
2018-01-25T07:43:53.127Z,1009.32
2018-01-25T07:44:53.167Z,1009.29
2018-01-25T07:45:53.195Z,1009.26
2018-01-25T07:46:53.524Z,1009.25
2018-01-25T07:47:53.251Z,1009.21
2018-01-25T07:48:53.285Z,1009.18
2018-01-25T07:49:53.320Z,1009.13
2018-01-25T07:50:53.346Z,1009.17
2018-01-25T07:51:53.385Z,1009.10
2018-01-25T07:53:53.792Z,1009.14
2018-01-25T07:54:53.775Z,1009.13
2018-01-25T07:55:53.502Z,1009.15
2018-01-25T07:56:53.535Z,1009.17
2018-01-25T07:57:53.575Z,1009.15
2018-01-25T07:58:53.603Z,1009.16
2018-01-25T07:59:53.985Z,1009.18
2018-01-25T08:00:53.664Z,1009.15
2018-01-25T08:01:53.702Z,1009.14
2018-01-25T08:02:53.727Z,1009.16
2018-01-25T08:03:53.756Z,1009.23
2018-01-25T08:04:53.789Z,1009.19
2018-01-25T08:05:53.822Z,1009.21
2018-01-25T08:06:54.204Z,1009.22
2018-01-25T08:07:53.885Z,1009.25
2018-01-25T08:08:53.916Z,1009.23
2018-01-25T08:09:53.960Z,1009.32
2018-01-25T08:10:53.978Z,1009.35
2018-01-25T08:11:54.012Z,1009.38
2018-01-25T08:12:54.041Z,1009.40
2018-01-25T08:13:54.383Z,1009.45
2018-01-25T08:14:54.111Z,1009.47
2018-01-25T08:15:54.141Z,1009.51
2018-01-25T08:16:54.169Z,1009.53
2018-01-25T08:17:54.259Z,1009.55
2018-01-25T08:18:54.253Z,1009.57
2018-01-25T08:19:54.261Z,1009.56
2018-01-25T08:20:54.596Z,1009.57
2018-01-25T08:21:54.326Z,1009.58
2018-01-25T08:22:54.359Z,1009.57
2018-01-25T08:24:54.472Z,1009.58
2018-01-25T08:25:54.458Z,1009.56
2018-01-25T08:26:54.485Z,1009.53
2018-01-25T08:27:54.868Z,1009.50
2018-01-25T08:28:54.549Z,1009.50
2018-01-25T08:29:54.580Z,1009.43
2018-01-25T08:30:54.618Z,1009.50
2018-01-25T08:31:54.642Z,1009.50
2018-01-25T08:32:54.672Z,1009.48
2018-01-25T08:33:54.708Z,1009.52
2018-01-25T08:35:54.794Z,1009.54
2018-01-25T08:36:54.802Z,1009.55
2018-01-25T08:37:54.831Z,1009.51
2018-01-25T08:38:54.863Z,1009.48
2018-01-25T08:39:54.893Z,1009.44
2018-01-25T08:40:54.929Z,1009.42
2018-01-25T08:41:55.262Z,1009.44
2018-01-25T08:42:54.997Z,1009.36
2018-01-25T08:43:55.021Z,1009.33
2018-01-25T08:44:55.110Z,1009.30
2018-01-25T08:45:55.090Z,1009.34
2018-01-25T08:46:55.121Z,1009.32
2018-01-25T08:47:55.155Z,1009.36
2018-01-25T08:48:55.496Z,1009.36
2018-01-25T08:49:55.273Z,1009.36
2018-01-25T08:50:55.244Z,1009.37
2018-01-25T08:51:55.274Z,1009.35
2018-01-25T08:52:55.316Z,1009.34
2018-01-25T08:53:55.338Z,1009.34
2018-01-25T08:54:55.375Z,1009.31
2018-01-25T08:55:55.756Z,1009.35
2018-01-25T08:56:55.448Z,1009.31
2018-01-25T08:57:55.473Z,1009.34
2018-01-25T08:59:55.560Z,1009.35
2018-01-25T09:00:55.567Z,1009.36
2018-01-25T09:01:55.594Z,1009.39
2018-01-25T09:02:55.973Z,1009.38
2018-01-25T09:03:55.656Z,1009.38
2018-01-25T09:04:55.697Z,1009.42
2018-01-25T09:05:55.726Z,1009.35
2018-01-25T09:06:55.752Z,1009.35
2018-01-25T09:07:55.784Z,1009.36
2018-01-25T09:08:55.815Z,1009.40
2018-01-25T09:09:56.197Z,1009.41
2018-01-25T09:10:55.926Z,1009.45
2018-01-25T09:11:55.979Z,1009.43
2018-01-25T09:12:55.949Z,1009.45
2018-01-25T09:13:55.972Z,1009.47
2018-01-25T09:14:56.006Z,1009.44
2018-01-25T09:15:56.038Z,1009.45
2018-01-25T09:16:56.422Z,1009.42
2018-01-25T09:17:56.307Z,1009.42
2018-01-25T09:18:56.186Z,1009.40
2018-01-25T09:19:56.489Z,1009.42
2018-01-25T09:20:56.194Z,1009.38
2018-01-25T09:21:56.232Z,1009.43
2018-01-25T09:22:56.263Z,1009.40
2018-01-25T09:23:56.639Z,1009.40
2018-01-25T09:24:56.348Z,1009.40
2018-01-25T09:25:56.376Z,1009.41
2018-01-25T09:26:56.389Z,1009.35
2018-01-25T09:27:56.433Z,1009.35
2018-01-25T09:28:56.452Z,1009.35
2018-01-25T09:29:56.841Z,1009.37
2018-01-25T09:30:56.517Z,1009.39
2018-01-25T09:31:56.539Z,1009.42
2018-01-25T09:32:56.575Z,1009.45
2018-01-25T09:33:56.608Z,1009.50
2018-01-25T09:34:56.641Z,1009.49
2018-01-25T09:35:57.043Z,1009.49
2018-01-25T09:36:56.698Z,1009.52
2018-01-25T09:38:56.771Z,1009.48
2018-01-25T09:39:56.809Z,1009.52
2018-01-25T09:40:56.829Z,1009.51
2018-01-25T09:41:57.160Z,1009.56
2018-01-25T09:42:56.910Z,1009.56
2018-01-25T09:43:56.926Z,1009.58
2018-01-25T09:44:56.956Z,1009.64
2018-01-25T09:45:56.990Z,1009.56
2018-01-25T09:46:57.022Z,1009.57
2018-01-25T09:47:57.060Z,1009.62
2018-01-25T09:48:57.402Z,1009.63
2018-01-25T09:49:57.119Z,1009.61
2018-01-25T09:50:57.144Z,1009.58
2018-01-25T09:51:57.179Z,1009.59
2018-01-25T09:53:57.240Z,1009.58
2018-01-25T09:54:57.292Z,1009.60
2018-01-25T09:55:58.665Z,1009.58
2018-01-25T09:56:58.148Z,1009.62
2018-01-25T09:57:57.390Z,1009.62
2018-01-25T09:58:57.403Z,1009.65
2018-01-25T09:59:57.435Z,1009.61
2018-01-25T10:00:57.571Z,1009.59
2018-01-25T10:04:57.900Z,1009.60
2018-01-25T10:05:57.630Z,1009.58
2018-01-25T10:06:57.675Z,1009.59
2018-01-25T10:07:57.695Z,1009.57
2018-01-25T10:08:57.810Z,1009.52
2018-01-25T10:09:57.916Z,1009.56
2018-01-25T10:11:58.112Z,1009.59
2018-01-25T10:12:57.848Z,1009.66
2018-01-25T10:15:57.941Z,1009.71
2018-01-25T10:16:57.976Z,1009.76
2018-01-25T10:17:58.405Z,1009.71
2018-01-25T10:18:58.056Z,1009.68
2018-01-25T10:19:58.073Z,1009.72
2018-01-25T10:20:58.100Z,1009.66
2018-01-25T10:21:58.133Z,1009.65
2018-01-25T10:22:58.175Z,1009.68
2018-01-25T10:23:58.204Z,1009.59
2018-01-25T10:24:58.578Z,1009.61
2018-01-25T10:26:58.304Z,1009.60
2018-01-25T10:27:58.354Z,1009.56
2018-01-25T10:29:58.440Z,1009.54
2018-01-25T10:30:58.423Z,1009.55
2018-01-25T10:31:58.802Z,1009.51
2018-01-25T10:32:58.483Z,1009.51
2018-01-25T10:33:58.521Z,1009.51
2018-01-25T10:34:58.558Z,1009.48
2018-01-25T10:35:58.579Z,1009.49
2018-01-25T10:36:58.612Z,1009.50
2018-01-25T10:37:58.644Z,1009.50
2018-01-25T10:38:59.042Z,1009.50
2018-01-25T10:39:58.711Z,1009.49
2018-01-25T10:40:58.745Z,1009.45
2018-01-25T10:41:58.784Z,1009.47
2018-01-25T10:42:58.808Z,1009.40
2018-01-25T10:43:58.886Z,1009.42
2018-01-25T10:44:58.970Z,1009.40
2018-01-25T10:45:59.413Z,1009.41
2018-01-25T10:46:59.039Z,1009.41
2018-01-25T10:47:59.062Z,1009.40
2018-01-25T10:48:59.098Z,1009.42
2018-01-25T10:49:59.130Z,1009.41
2018-01-25T10:50:59.236Z,1009.40
2018-01-25T10:51:59.239Z,1009.38
2018-01-25T10:53:59.264Z,1009.36
2018-01-25T10:54:59.339Z,1009.35
2018-01-25T10:56:59.355Z,1009.30
2018-01-25T10:57:59.391Z,1009.27
2018-01-25T10:58:59.464Z,1009.23
2018-01-25T10:59:59.449Z,1009.25
2018-01-25T11:00:59.482Z,1009.22
2018-01-25T11:01:59.512Z,1009.23
2018-01-25T11:03:59.581Z,1009.19
2018-01-25T11:04:59.957Z,1009.21
2018-01-25T11:05:59.703Z,1009.15
2018-01-25T11:06:59.669Z,1009.14
2018-01-25T11:07:59.755Z,1009.13
2018-01-25T11:08:59.737Z,1009.09
2018-01-25T11:09:59.779Z,1009.10
2018-01-25T11:11:00.152Z,1009.11
2018-01-25T11:11:59.834Z,1009.10
2018-01-25T11:12:59.869Z,1009.03
2018-01-25T11:13:59.899Z,1009.04
2018-01-25T11:14:59.962Z,1009.05
2018-01-25T11:15:59.955Z,1009.01
2018-01-25T11:17:00.344Z,1009.00
2018-01-25T11:18:00.024Z,1009.01
2018-01-25T11:19:00.056Z,1008.97
2018-01-25T11:20:00.091Z,1008.98
2018-01-25T11:21:00.119Z,1008.95
2018-01-25T11:22:00.159Z,1008.96
2018-01-25T11:23:00.185Z,1008.93
2018-01-25T11:24:00.572Z,1008.95
2018-01-25T11:25:00.252Z,1008.94
2018-01-25T11:26:00.309Z,1008.93
2018-01-25T11:27:00.311Z,1008.91
2018-01-25T11:28:00.349Z,1008.88
2018-01-25T11:29:00.376Z,1008.83
2018-01-25T11:30:00.414Z,1008.80
2018-01-25T11:31:00.843Z,1008.79
2018-01-25T11:32:00.487Z,1008.77
2018-01-25T11:33:00.517Z,1008.72
2018-01-25T11:34:00.544Z,1008.68
2018-01-25T11:35:00.577Z,1008.63
2018-01-25T11:36:02.475Z,1008.61
2018-01-25T11:37:00.635Z,1008.59
2018-01-25T11:39:01.059Z,1008.59
2018-01-25T11:40:00.732Z,1008.57
2018-01-25T11:41:00.767Z,1008.58
2018-01-25T11:42:00.798Z,1008.59
2018-01-25T11:43:00.850Z,1008.57
2018-01-25T11:44:00.859Z,1008.57
2018-01-25T11:45:01.241Z,1008.59
2018-01-25T11:46:00.927Z,1008.55
2018-01-25T11:47:00.963Z,1008.58
2018-01-25T11:48:00.988Z,1008.55
2018-01-25T11:50:01.069Z,1008.52
2018-01-25T11:51:01.094Z,1008.56
2018-01-25T11:52:01.472Z,1008.55
2018-01-25T11:53:01.158Z,1008.54
2018-01-25T11:54:01.202Z,1008.52
2018-01-25T11:56:01.247Z,1008.48
2018-01-25T11:57:01.277Z,1008.49
2018-01-25T11:58:01.316Z,1008.50
2018-01-25T11:59:01.706Z,1008.49
2018-01-25T12:00:01.376Z,1008.49
2018-01-25T12:01:01.409Z,1008.53
2018-01-25T12:02:01.447Z,1008.54
2018-01-25T12:03:01.522Z,1008.53
2018-01-25T12:04:02.337Z,1008.53
2018-01-25T12:06:01.969Z,1008.49
2018-01-25T12:07:01.603Z,1008.43
2018-01-25T12:10:01.760Z,1008.41
2018-01-25T12:11:01.736Z,1008.39
2018-01-25T12:12:01.764Z,1008.36
2018-01-25T12:14:02.246Z,1008.33
2018-01-25T12:15:01.860Z,1008.27
2018-01-25T12:16:01.893Z,1008.33
2018-01-25T12:17:01.929Z,1008.29
2018-01-25T12:18:01.961Z,1008.28
2018-01-25T12:19:01.989Z,1008.28
2018-01-25T12:21:02.414Z,1008.35
2018-01-25T12:22:02.095Z,1008.37
2018-01-25T12:23:02.134Z,1008.34
2018-01-25T12:24:02.151Z,1008.35
2018-01-25T12:25:02.188Z,1008.33
2018-01-25T12:26:02.232Z,1008.33
2018-01-25T12:27:02.291Z,1008.30
2018-01-25T12:28:02.685Z,1008.34
2018-01-25T12:29:02.311Z,1008.35
2018-01-25T12:30:02.377Z,1008.32
2018-01-25T12:31:02.381Z,1008.28
2018-01-25T12:32:02.415Z,1008.30
2018-01-25T12:33:02.442Z,1008.31
2018-01-25T12:34:02.479Z,1008.32
2018-01-25T12:35:02.909Z,1008.27
2018-01-25T12:36:02.589Z,1008.27
2018-01-25T12:37:02.580Z,1008.27
2018-01-25T12:38:02.606Z,1008.24
2018-01-25T12:39:02.641Z,1008.22
2018-01-25T12:40:02.674Z,1008.21
2018-01-25T12:41:02.735Z,1008.22
2018-01-25T12:42:03.093Z,1008.21
2018-01-25T12:43:02.770Z,1008.21
2018-01-25T12:44:02.802Z,1008.17
2018-01-25T12:45:03.094Z,1008.17
2018-01-25T12:46:02.918Z,1008.11
2018-01-25T12:47:02.901Z,1008.13
2018-01-25T12:49:03.387Z,1008.06
2018-01-25T12:50:03.006Z,1008.05
2018-01-25T12:51:03.032Z,1007.99